Time;durP1;ratioP1;P1;durP2;ratioP2;P2;SDS_P1;SDS_P2;PMS_P1;PMS_P2;Temp;Humidity;BMP_temperature;BMP_pressure;BME280_temperature;BME280_humidity;BME280_pressure;Samples;Min_cycle;Max_cycle;Signal;HPM_P1;HPM_P2
2022/03/23 00:01:34;;;;;;;42.22;25.40;;;;;;;8.29;60.21;102960.81;5013981;28;20036;-63
2022/03/23 00:03:59;;;;;;;50.92;25.27;;;;;;;8.25;59.99;102958.47;5014710;28;20299;-64
2022/03/23 00:06:25;;;;;;;48.92;25.73;;;;;;;8.19;60.29;102954.44;5015035;28;20026;-63
2022/03/23 00:08:51;;;;;;;42.53;24.65;;;;;;;8.20;60.13;102953.50;5014574;28;20075;-63
2022/03/23 00:11:17;;;;;;;45.67;25.35;;;;;;;8.19;59.79;102953.59;5017851;28;20448;-63
2022/03/23 00:13:42;;;;;;;49.97;25.75;;;;;;;8.20;59.65;102957.94;5016319;28;20090;-63
2022/03/23 00:16:07;;;;;;;46.83;26.83;;;;;;;8.19;59.65;102954.44;5018918;28;20040;-64
2022/03/23 00:18:32;;;;;;;44.88;25.35;;;;;;;8.02;59.38;102950.25;5011496;28;20029;-63
2022/03/23 00:20:58;;;;;;;41.58;24.65;;;;;;;8.06;59.33;102950.91;5012829;28;20049;-63
2022/03/23 00:23:23;;;;;;;43.67;25.75;;;;;;;8.03;59.44;102953.75;5021045;28;20036;-64
2022/03/23 00:25:49;;;;;;;42.83;24.90;;;;;;;7.98;59.28;102956.72;5018409;28;20095;-64
2022/03/23 00:28:14;;;;;;;48.88;24.08;;;;;;;7.98;59.79;102953.22;5021189;28;20040;-64
2022/03/23 00:30:40;;;;;;;51.05;25.35;;;;;;;7.96;59.69;102957.75;5022746;28;20025;-64
2022/03/23 00:33:05;;;;;;;48.97;26.10;;;;;;;7.89;59.71;102956.47;5019106;28;20072;-64
2022/03/23 00:35:32;;;;;;;43.95;25.77;;;;;;;7.80;59.94;102957.06;5022253;28;20049;-64
2022/03/23 00:38:00;;;;;;;48.60;25.35;;;;;;;7.70;60.06;102951.53;5017020;28;20038;-64
2022/03/23 00:40:30;;;;;;;41.50;25.77;;;;;;;7.69;60.17;102953.34;5016839;28;20400;-63
2022/03/23 00:42:59;;;;;;;42.90;25.25;;;;;;;7.62;60.46;102946.75;5022590;28;20029;-63
2022/03/23 00:45:25;;;;;;;51.30;25.88;;;;;;;7.63;60.24;102952.91;5015732;28;20057;-64
2022/03/23 00:47:50;;;;;;;50.65;26.17;;;;;;;7.62;60.39;102959.97;5017632;28;20068;-63
2022/03/23 00:50:15;;;;;;;47.88;26.83;;;;;;;7.52;60.39;102952.72;5011468;28;20091;-63
2022/03/23 00:52:42;;;;;;;40.03;24.50;;;;;;;7.26;60.45;102955.25;5014741;28;20477;-63
2022/03/23 00:55:09;;;;;;;40.33;24.98;;;;;;;7.21;60.67;102945.91;5015954;28;20106;-64
2022/03/23 00:57:38;;;;;;;38.17;24.05;;;;;;;7.16;61.28;102956.75;5017245;28;20532;-63
2022/03/23 01:00:06;;;;;;;41.03;24.77;;;;;;;7.01;61.60;102958.59;5012979;28;20033;-64
2022/03/23 01:02:34;;;;;;;52.83;26.15;;;;;;;7.01;61.73;102955.09;5010594;28;20127;-63
2022/03/23 01:05:00;;;;;;;45.20;25.40;;;;;;;6.87;61.94;102950.66;5015277;28;20041;-63
2022/03/23 01:07:25;;;;;;;47.80;24.80;;;;;;;6.76;62.18;102958.41;5017827;28;20381;-63
2022/03/23 01:09:51;;;;;;;42.78;24.15;;;;;;;6.69;62.25;102959.72;5013366;28;20473;-64
2022/03/23 01:12:16;;;;;;;47.33;25.50;;;;;;;6.51;62.91;102943.19;5018270;28;20117;-63
2022/03/23 01:14:42;;;;;;;51.73;28.57;;;;;;;6.59;63.20;102948.00;5012286;28;20022;-63
2022/03/23 01:17:08;;;;;;;49.05;26.63;;;;;;;6.65;63.41;102956.41;5017494;28;20082;-63
2022/03/23 01:19:33;;;;;;;52.33;27.98;;;;;;;6.62;63.44;102945.16;5010270;28;20038;-63
2022/03/23 01:21:58;;;;;;;43.80;25.83;;;;;;;6.66;63.70;102947.56;5010364;28;20044;-64
2022/03/23 01:24:24;;;;;;;42.83;24.17;;;;;;;6.69;63.48;102946.53;5016678;28;20025;-63
2022/03/23 01:26:49;;;;;;;46.08;24.92;;;;;;;6.69;63.96;102941.25;5015961;28;20030;-63
2022/03/23 01:29:14;;;;;;;45.77;24.23;;;;;;;6.67;63.80;102946.63;5019309;28;20646;-63
2022/03/23 01:31:40;;;;;;;44.40;23.83;;;;;;;6.56;64.12;102938.47;5021813;28;20566;-63
2022/03/23 01:34:05;;;;;;;49.95;25.58;;;;;;;6.46;64.40;102929.44;5016127;28;20033;-63
2022/03/23 01:36:31;;;;;;;48.47;24.75;;;;;;;6.42;64.38;102938.47;5021336;28;20101;-63
2022/03/23 01:38:57;;;;;;;42.75;23.08;;;;;;;6.35;63.99;102931.84;5015888;28;20469;-63
2022/03/23 01:41:23;;;;;;;43.40;24.10;;;;;;;6.36;64.18;102933.53;5017027;28;20025;-63
2022/03/23 01:43:50;;;;;;;44.17;25.23;;;;;;;6.38;64.47;102931.69;5017205;28;20159;-63
2022/03/23 01:46:17;;;;;;;46.13;25.77;;;;;;;6.37;64.97;102930.84;5021128;28;20033;-63
2022/03/23 01:48:43;;;;;;;47.43;26.23;;;;;;;6.38;65.00;102929.91;5008657;28;20501;-63
2022/03/23 01:51:08;;;;;;;48.17;26.57;;;;;;;6.41;65.60;102927.06;5019161;28;20040;-64
2022/03/23 01:53:33;;;;;;;45.30;26.57;;;;;;;6.36;65.78;102923.88;5014043;28;20524;-63
2022/03/23 01:55:59;;;;;;;47.23;28.10;;;;;;;6.32;65.75;102921.47;5017215;28;20108;-63
2022/03/23 01:58:25;;;;;;;48.93;26.70;;;;;;;6.31;65.73;102915.34;5024101;28;20033;-64
2022/03/23 02:00:51;;;;;;;43.87;25.60;;;;;;;6.32;65.60;102922.31;5017721;28;20029;-63
2022/03/23 02:03:16;;;;;;;54.13;27.20;;;;;;;6.26;65.75;102917.41;5018990;28;20378;-63
2022/03/23 02:05:41;;;;;;;44.40;26.57;;;;;;;6.22;65.52;102923.81;5010007;28;20117;-63
2022/03/23 02:08:07;;;;;;;45.97;26.23;;;;;;;6.25;65.89;102915.72;5016701;28;20030;-63
2022/03/23 02:10:32;;;;;;;47.93;26.47;;;;;;;6.22;65.58;102913.28;5020024;28;20025;-63
2022/03/23 02:12:57;;;;;;;48.93;27.57;;;;;;;6.20;65.63;102907.25;5019101;28;20591;-64
2022/03/23 02:15:25;;;;;;;46.37;26.73;;;;;;;6.20;65.71;102912.50;5010327;28;20025;-63
2022/03/23 02:17:53;;;;;;;44.77;26.67;;;;;;;6.18;65.67;102914.41;5016639;28;20028;-63
2022/03/23 02:20:19;;;;;;;50.33;27.70;;;;;;;6.18;65.73;102923.16;5015065;28;20393;-63
2022/03/23 02:22:44;;;;;;;47.30;26.60;;;;;;;6.20;65.53;102917.78;5010823;28;20481;-63
2022/03/23 02:25:10;;;;;;;44.40;26.63;;;;;;;6.07;65.57;102920.31;5013291;28;20044;-63
2022/03/23 02:27:38;;;;;;;45.23;27.73;;;;;;;5.92;65.71;102915.94;5017089;28;20036;-63
2022/03/23 02:30:09;;;;;;;43.80;26.33;;;;;;;5.85;65.81;102923.31;5017145;28;20052;-63
2022/03/23 02:32:35;;;;;;;49.83;28.17;;;;;;;5.67;66.27;102915.59;5013009;28;20393;-63
2022/03/23 02:35:01;;;;;;;50.10;28.37;;;;;;;5.62;66.88;102909.75;5018252;28;20095;-63
2022/03/23 02:37:27;;;;;;;59.60;29.20;;;;;;;5.67;66.76;102913.81;5018569;28;20025;-63
2022/03/23 02:39:52;;;;;;;53.27;27.87;;;;;;;5.71;66.81;102917.97;5018900;28;20038;-63
2022/03/23 02:42:18;;;;;;;48.80;27.20;;;;;;;5.75;66.87;102910.72;5019674;28;20044;-63
2022/03/23 02:44:43;;;;;;;46.73;27.43;;;;;;;5.77;67.03;102916.75;5019816;28;21360;-64
2022/03/23 02:47:09;;;;;;;56.57;27.77;;;;;;;5.75;67.11;102908.94;5018161;28;20036;-63
2022/03/23 02:49:34;;;;;;;52.83;26.43;;;;;;;5.75;67.02;102923.91;5017054;28;20076;-63
2022/03/23 02:52:00;;;;;;;48.80;25.73;;;;;;;5.71;67.23;102912.69;5013301;28;20063;-63
2022/03/23 03:03:03;;;;;;;46.73;26.27;;;;;;;5.37;67.45;102916.41;5016781;28;20541;-63
2022/03/23 03:05:28;;;;;;;45.43;25.67;;;;;;;5.38;67.40;102912.84;5022139;28;20124;-63
2022/03/23 03:10:37;;;;;;;40.03;24.13;;;;;;;5.33;67.34;102920.16;5015961;28;20120;-63
2022/03/23 03:13:02;;;;;;;44.27;24.10;;;;;;;5.34;67.52;102919.22;5018761;28;20108;-63
2022/03/23 03:15:28;;;;;;;37.33;23.03;;;;;;;5.27;67.53;102921.34;5020383;28;20127;-63
2022/03/23 03:18:00;;;;;;;43.23;25.17;;;;;;;5.26;67.59;102922.28;5014166;28;20232;-63
2022/03/23 03:20:27;;;;;;;47.57;25.53;;;;;;;5.25;67.75;102928.47;5023144;28;20037;-63
2022/03/23 03:22:52;;;;;;;47.23;26.07;;;;;;;5.17;67.78;102929.81;5019523;28;20074;-64
2022/03/23 03:25:20;;;;;;;42.10;23.87;;;;;;;5.09;67.92;102929.41;5017228;28;20021;-63
2022/03/23 03:27:46;;;;;;;41.73;24.70;;;;;;;5.04;68.07;102934.91;5018307;28;20029;-63
2022/03/23 03:30:13;;;;;;;47.80;27.03;;;;;;;4.93;68.29;102937.28;5012474;28;20103;-63
2022/03/23 03:32:40;;;;;;;47.30;26.80;;;;;;;4.81;68.52;102938.78;5015098;28;20033;-63
2022/03/23 03:35:06;;;;;;;51.53;28.03;;;;;;;4.86;69.15;102936.75;5021381;28;20126;-63
2022/03/23 03:37:32;;;;;;;56.73;29.73;;;;;;;4.88;69.65;102934.03;5018267;28;20030;-63
2022/03/23 03:39:57;;;;;;;60.57;30.80;;;;;;;4.91;70.09;102934.72;5014935;28;20091;-63
2022/03/23 03:42:23;;;;;;;50.80;27.90;;;;;;;4.80;70.04;102934.44;5020184;28;20060;-63
2022/03/23 03:44:50;;;;;;;53.60;27.87;;;;;;;4.76;70.20;102938.19;5016678;28;20509;-63
2022/03/23 03:47:16;;;;;;;49.20;27.07;;;;;;;4.62;70.49;102931.00;5016478;28;20087;-63
2022/03/23 03:49:42;;;;;;;52.03;28.07;;;;;;;4.63;70.56;102934.50;5019422;28;20025;-63
2022/03/23 03:52:07;;;;;;;49.73;28.80;;;;;;;4.60;70.68;102934.63;5022453;28;20503;-63
2022/03/23 03:54:32;;;;;;;49.10;28.47;;;;;;;4.58;70.92;102941.78;5023092;28;20060;-63
2022/03/23 03:56:58;;;;;;;48.83;28.70;;;;;;;4.63;71.32;102938.00;5020955;28;20061;-63
2022/03/23 03:59:23;;;;;;;49.87;27.80;;;;;;;4.60;71.37;102934.63;5013306;28;20049;-63
2022/03/23 04:01:49;;;;;;;47.57;28.10;;;;;;;4.62;71.32;102943.31;5015932;28;20029;-63
2022/03/23 04:04:15;;;;;;;42.63;25.60;;;;;;;4.63;71.22;102929.25;5015048;28;20144;-63
2022/03/23 04:06:40;;;;;;;45.10;25.77;;;;;;;4.73;70.80;102929.59;5020085;28;20108;-64
2022/03/23 04:09:06;;;;;;;48.37;25.93;;;;;;;4.69;70.29;102934.19;5015473;28;20444;-63
2022/03/23 04:11:31;;;;;;;48.33;26.00;;;;;;;4.92;70.24;102927.69;5018943;28;20104;-63
2022/03/23 04:13:56;;;;;;;44.13;25.10;;;;;;;5.07;69.53;102934.75;5018124;28;20059;-63
2022/03/23 04:16:21;;;;;;;47.40;25.07;;;;;;;5.13;69.03;102931.78;5020998;28;20535;-63
2022/03/23 04:18:47;;;;;;;42.47;25.13;;;;;;;5.09;68.61;102932.88;5018049;28;20061;-63
2022/03/23 04:21:12;;;;;;;40.70;23.17;;;;;;;4.89;67.95;102936.59;5015610;28;20511;-64
2022/03/23 04:23:38;;;;;;;37.03;22.13;;;;;;;4.81;67.83;102930.88;5022562;28;20075;-63
2022/03/23 04:26:03;;;;;;;39.67;24.23;;;;;;;4.76;67.79;102939.97;5020184;28;20064;-63
2022/03/23 04:28:29;;;;;;;41.33;24.70;;;;;;;4.75;67.98;102938.25;5017867;28;20069;-64
2022/03/23 04:30:55;;;;;;;45.43;24.37;;;;;;;4.76;68.07;102942.59;5018616;28;20087;-63
2022/03/23 04:33:20;;;;;;;46.97;25.57;;;;;;;4.74;68.02;102940.03;5015205;28;21772;-63
2022/03/23 04:35:45;;;;;;;43.93;25.93;;;;;;;4.78;68.31;102941.56;5016600;28;20025;-63
2022/03/23 04:38:11;;;;;;;48.00;26.83;;;;;;;4.83;68.46;102946.59;5011690;28;20389;-63
2022/03/23 04:40:36;;;;;;;51.30;27.23;;;;;;;4.81;68.54;102928.25;5011921;28;20679;-63
2022/03/23 04:43:01;;;;;;;48.63;27.00;;;;;;;4.86;68.53;102947.28;5015438;28;20052;-63
2022/03/23 04:45:27;;;;;;;50.23;28.80;;;;;;;4.88;68.30;102949.81;5015336;28;20044;-63
2022/03/23 04:47:52;;;;;;;48.07;27.17;;;;;;;4.85;68.43;102940.31;5018594;28;20044;-63
2022/03/23 04:50:18;;;;;;;55.23;28.50;;;;;;;4.86;68.38;102942.00;5019585;28;20037;-63
2022/03/23 04:52:45;;;;;;;51.17;28.67;;;;;;;4.84;68.32;102953.56;5010918;28;20033;-63
2022/03/23 04:55:13;;;;;;;53.83;29.43;;;;;;;4.82;68.24;102950.16;5025391;28;20029;-63
2022/03/23 04:57:38;;;;;;;50.87;28.50;;;;;;;4.79;68.19;102955.59;5014280;28;20097;-63
2022/03/23 05:00:10;;;;;;;51.80;29.37;;;;;;;4.73;68.11;102956.78;5013586;28;20065;-63
2022/03/23 05:02:39;;;;;;;53.17;29.60;;;;;;;4.72;68.16;102951.59;5025233;28;20039;-63
2022/03/23 05:05:07;;;;;;;52.22;29.67;;;;;;;4.66;68.33;102960.66;5019066;28;20055;-63
2022/03/23 05:07:32;;;;;;;55.53;30.13;;;;;;;4.66;68.46;102955.41;5026152;28;20064;-63
2022/03/23 05:09:57;;;;;;;54.37;30.90;;;;;;;4.64;68.47;102954.63;5025501;28;20061;-63
2022/03/23 05:12:23;;;;;;;57.37;29.53;;;;;;;4.65;68.63;102959.81;5023417;28;20051;-63
2022/03/23 05:14:48;;;;;;;52.10;30.03;;;;;;;4.64;68.55;102957.25;5027366;28;20543;-63
2022/03/23 05:17:13;;;;;;;56.77;31.67;;;;;;;4.63;68.79;102958.19;5029670;28;20028;-64
2022/03/23 05:19:38;;;;;;;58.10;31.40;;;;;;;4.70;68.75;102971.88;5020777;28;20072;-63
2022/03/23 05:22:05;;;;;;;59.17;31.13;;;;;;;4.69;68.72;102965.75;5011749;28;20551;-63
2022/03/23 05:24:30;;;;;;;56.47;30.37;;;;;;;4.71;68.71;102960.41;5024390;28;20033;-63
2022/03/23 05:26:57;;;;;;;60.97;30.83;;;;;;;4.64;68.67;102957.25;5016186;28;20044;-63
2022/03/23 05:29:22;;;;;;;53.20;30.13;;;;;;;4.66;68.57;102964.16;5032433;28;20024;-63
2022/03/23 05:31:47;;;;;;;54.10;30.50;;;;;;;4.63;68.53;102968.72;5029465;28;20037;-63
2022/03/23 05:34:12;;;;;;;59.50;30.00;;;;;;;4.60;68.59;102964.44;5022627;28;20034;-63
2022/03/23 05:36:38;;;;;;;59.73;30.43;;;;;;;4.59;68.73;102965.38;5014164;28;20226;-63
2022/03/23 05:39:03;;;;;;;61.10;29.77;;;;;;;4.57;68.70;102964.59;5014813;28;20039;-63
2022/03/23 05:41:28;;;;;;;54.70;30.67;;;;;;;4.58;68.71;102968.94;5028996;28;20020;-63
2022/03/23 05:43:53;;;;;;;51.93;30.73;;;;;;;4.55;68.69;102969.09;5014928;28;20030;-63
2022/03/23 05:46:19;;;;;;;60.90;31.27;;;;;;;4.55;68.71;102977.00;5014434;28;20025;-63
2022/03/23 05:48:44;;;;;;;58.90;30.37;;;;;;;4.50;68.72;102984.28;5026063;28;20052;-63
2022/03/23 05:51:09;;;;;;;57.17;30.70;;;;;;;4.43;68.87;102990.78;5022069;28;20465;-63
2022/03/23 05:53:36;;;;;;;50.90;28.70;;;;;;;4.25;68.75;102991.69;5017458;28;20505;-63
2022/03/23 05:56:04;;;;;;;49.40;28.47;;;;;;;4.23;69.11;102991.78;5016494;28;20022;-63
2022/03/23 05:58:30;;;;;;;64.53;32.50;;;;;;;4.25;69.54;102992.53;5017726;28;20034;-63
2022/03/23 06:00:56;;;;;;;53.63;30.30;;;;;;;4.12;69.71;102988.84;5017925;28;20052;-63
2022/03/23 06:03:21;;;;;;;60.37;30.57;;;;;;;4.13;69.62;102994.94;5024277;28;20033;-63
2022/03/23 06:05:46;;;;;;;55.20;29.03;;;;;;;4.11;69.96;102997.66;5028693;28;20064;-63
2022/03/23 06:08:12;;;;;;;53.03;29.03;;;;;;;4.11;70.21;103000.28;5014738;28;20035;-63
2022/03/23 06:10:37;;;;;;;54.33;30.77;;;;;;;4.08;70.43;102999.59;5007103;28;20030;-63
2022/03/23 06:13:02;;;;;;;53.00;29.90;;;;;;;4.05;70.56;103000.59;5022625;28;20396;-63
2022/03/23 06:15:28;;;;;;;60.80;31.73;;;;;;;4.06;70.83;102996.19;5020202;28;20045;-63
2022/03/23 06:17:53;;;;;;;58.03;30.13;;;;;;;4.02;70.66;103003.34;5032929;28;20485;-63
2022/03/23 06:20:18;;;;;;;57.40;30.20;;;;;;;4.23;70.96;103007.56;5030286;28;20407;-63
2022/03/23 06:22:44;;;;;;;60.90;30.60;;;;;;;4.44;71.46;103002.16;5022056;28;20378;-63
2022/03/23 06:25:09;;;;;;;54.27;28.83;;;;;;;4.60;71.53;103008.31;5035321;28;20037;-63
2022/03/23 06:27:35;;;;;;;48.70;28.80;;;;;;;4.68;71.33;103000.06;5018501;28;20465;-63
2022/03/23 06:30:01;;;;;;;52.70;28.60;;;;;;;4.86;71.56;103009.59;5025683;28;20029;-63
2022/03/23 06:32:27;;;;;;;56.10;29.33;;;;;;;4.96;71.53;103001.16;5035286;28;20056;-63
2022/03/23 06:34:52;;;;;;;48.97;28.63;;;;;;;5.04;71.22;102999.91;5029052;28;20063;-63
2022/03/23 06:37:18;;;;;;;51.33;29.00;;;;;;;5.14;71.03;103012.47;5012794;28;20022;-63
2022/03/23 06:39:43;;;;;;;54.77;30.50;;;;;;;5.26;70.88;103008.34;5010126;28;20608;-63
2022/03/23 06:42:09;;;;;;;53.90;29.30;;;;;;;5.43;70.96;103012.69;5024785;28;20198;-63
2022/03/23 06:44:34;;;;;;;54.80;31.43;;;;;;;5.70;71.20;103016.44;5019296;28;20030;-63
2022/03/23 06:46:59;;;;;;;56.67;31.97;;;;;;;5.89;70.73;103021.56;5022299;28;20029;-63
2022/03/23 06:49:24;;;;;;;55.40;31.53;;;;;;;6.01;70.63;103022.66;5025709;28;20076;-63
2022/03/23 06:51:50;;;;;;;57.93;31.30;;;;;;;6.13;70.32;103022.81;5023690;28;20025;-63
2022/03/23 06:54:16;;;;;;;54.67;30.53;;;;;;;6.26;70.12;103017.69;5025635;28;20022;-64
2022/03/23 06:56:41;;;;;;;53.83;31.07;;;;;;;6.31;69.62;103020.91;5019817;28;20037;-63
2022/03/23 06:59:07;;;;;;;57.57;31.93;;;;;;;6.52;69.36;103017.00;5013215;28;20037;-63
2022/03/23 07:01:32;;;;;;;54.97;31.47;;;;;;;6.69;69.21;103023.94;5015656;28;20043;-63
2022/03/23 07:03:57;;;;;;;60.00;32.67;;;;;;;6.81;69.18;103024.97;5015027;28;20512;-63
2022/03/23 07:06:22;;;;;;;57.00;31.87;;;;;;;6.93;69.07;103026.88;5012479;28;20033;-63
2022/03/23 07:11:32;;;;;;;60.00;32.70;;;;;;;7.49;69.33;103032.22;5014842;28;20045;-63
2022/03/23 07:13:57;;;;;;;56.07;32.63;;;;;;;7.73;69.11;103031.53;5023511;28;20025;-63
2022/03/23 07:16:23;;;;;;;59.47;33.57;;;;;;;7.92;68.09;103033.00;5013767;28;20037;-63
2022/03/23 07:18:49;;;;;;;61.20;33.37;;;;;;;8.02;68.10;103034.09;5014686;28;20048;-64
2022/03/23 07:21:14;;;;;;;60.17;34.97;;;;;;;8.28;67.34;103041.16;5019871;28;20040;-63
2022/03/23 07:23:39;;;;;;;58.97;34.73;;;;;;;8.44;66.38;103034.91;5020756;28;20050;-63
2022/03/23 07:26:06;;;;;;;60.53;33.60;;;;;;;8.53;65.51;103032.47;5011686;28;20069;-63
2022/03/23 07:28:32;;;;;;;61.67;33.38;;;;;;;8.77;64.72;103050.31;5016352;28;20123;-63
2022/03/23 07:30:57;;;;;;;57.92;33.55;;;;;;;8.78;63.91;103036.94;5018042;28;20370;-63
2022/03/23 07:33:22;;;;;;;65.23;33.63;;;;;;;8.78;63.35;103033.47;5019239;28;20151;-63
2022/03/23 07:35:48;;;;;;;55.00;33.13;;;;;;;8.93;63.34;103046.47;5015817;28;20408;-64
2022/03/23 07:38:14;;;;;;;66.13;35.80;;;;;;;9.13;62.85;103049.56;5020369;28;20057;-63
2022/03/23 07:40:40;;;;;;;61.95;35.20;;;;;;;9.44;62.50;103045.59;5012497;28;20083;-63
2022/03/23 07:43:06;;;;;;;66.80;35.38;;;;;;;9.53;61.69;103040.47;5019246;28;20026;-63
2022/03/23 07:45:32;;;;;;;55.60;34.00;;;;;;;9.39;60.96;103029.19;5028249;28;20029;-63
2022/03/23 07:47:57;;;;;;;57.17;33.47;;;;;;;9.41;60.64;103044.03;5028406;28;20026;-64
2022/03/23 07:50:22;;;;;;;62.03;35.22;;;;;;;9.39;60.53;103048.59;5018942;28;20032;-63
2022/03/23 07:52:48;;;;;;;59.22;34.47;;;;;;;9.59;60.42;103053.31;5027619;28;20025;-64
2022/03/23 07:55:13;;;;;;;61.08;34.63;;;;;;;9.75;60.45;103055.72;5019923;28;20031;-63
2022/03/23 07:57:38;;;;;;;64.88;34.05;;;;;;;9.83;60.07;103058.69;5016098;28;20087;-63
2022/03/23 08:00:04;;;;;;;60.97;34.35;;;;;;;9.92;59.32;103054.50;5018787;28;20058;-63
2022/03/23 08:02:30;;;;;;;60.22;34.88;;;;;;;9.94;58.61;103052.56;5023178;28;20140;-63
2022/03/23 08:04:55;;;;;;;63.25;34.00;;;;;;;9.99;58.38;103052.22;5016747;28;20541;-64
2022/03/23 08:07:20;;;;;;;59.17;35.08;;;;;;;10.11;57.53;103064.59;5014628;28;20030;-64
2022/03/23 08:09:46;;;;;;;59.63;35.03;;;;;;;10.20;57.87;103055.97;5008687;28;20513;-64
2022/03/23 08:12:11;;;;;;;73.43;34.63;;;;;;;10.19;57.34;103057.78;5017586;28;20033;-63
2022/03/23 08:14:37;;;;;;;68.85;35.92;;;;;;;10.41;57.40;103065.03;5017200;28;20308;-64
2022/03/23 08:17:02;;;;;;;59.42;33.65;;;;;;;10.47;57.64;103058.41;5017597;28;20107;-64
2022/03/23 08:19:28;;;;;;;58.63;33.97;;;;;;;10.61;57.51;103060.84;5020465;28;20196;-64
2022/03/23 08:21:53;;;;;;;57.67;32.78;;;;;;;10.78;57.42;103062.25;5016591;28;20076;-64
2022/03/23 08:24:18;;;;;;;55.22;32.65;;;;;;;10.79;56.53;103064.78;5011584;28;20045;-64
2022/03/23 08:26:44;;;;;;;53.53;33.03;;;;;;;10.95;56.53;103063.59;5012872;28;20034;-64
2022/03/23 08:29:09;;;;;;;54.00;32.63;;;;;;;10.90;56.00;103060.44;5026286;28;20038;-64
2022/03/23 08:31:35;;;;;;;53.38;32.22;;;;;;;11.06;55.75;103064.47;5019472;28;20105;-64
2022/03/23 08:34:02;;;;;;;55.17;32.92;;;;;;;11.20;55.65;103062.53;5012504;28;20104;-65
2022/03/23 08:36:28;;;;;;;58.05;32.50;;;;;;;11.16;55.05;103051.28;5018272;28;20052;-64
2022/03/23 08:38:53;;;;;;;53.88;32.65;;;;;;;11.23;54.93;103048.97;5023889;28;20030;-64
2022/03/23 08:41:19;;;;;;;50.67;32.05;;;;;;;11.21;54.60;103053.59;5019412;28;20465;-64
2022/03/23 08:43:44;;;;;;;55.22;33.42;;;;;;;11.34;54.47;103052.50;5020072;28;20481;-64
2022/03/23 08:46:13;;;;;;;51.60;31.75;;;;;;;11.31;54.13;103052.75;5022564;28;20669;-64
2022/03/23 08:48:38;;;;;;;54.17;31.98;;;;;;;11.35;53.27;103056.88;5027356;28;20128;-64
2022/03/23 08:51:04;;;;;;;54.53;31.52;;;;;;;11.36;52.99;103058.56;5012549;28;20537;-64
2022/03/23 08:53:31;;;;;;;54.20;32.13;;;;;;;11.64;53.32;103061.69;5008715;28;20033;-64
2022/03/23 08:55:57;;;;;;;55.10;32.78;;;;;;;11.78;53.07;103064.09;5014010;28;20025;-64
2022/03/23 08:58:23;;;;;;;50.55;30.77;;;;;;;11.93;52.74;103062.03;5027508;28;20022;-64
2022/03/23 09:00:48;;;;;;;58.75;31.95;;;;;;;11.94;52.32;103059.22;5023802;28;20512;-64
2022/03/23 09:03:14;;;;;;;50.00;31.90;;;;;;;12.02;51.26;103064.78;5026272;28;20041;-64
2022/03/23 09:05:40;;;;;;;52.22;32.45;;;;;;;12.12;51.36;103064.00;5029292;28;20499;-64
2022/03/23 09:08:07;;;;;;;55.53;32.42;;;;;;;12.25;51.42;103062.03;5026930;28;20026;-64
2022/03/23 09:10:34;;;;;;;57.97;32.65;;;;;;;12.38;51.50;103063.53;5026768;28;20025;-64
2022/03/23 09:12:59;;;;;;;53.42;33.50;;;;;;;12.54;51.74;103057.78;5019409;28;20026;-65
2022/03/23 09:15:25;;;;;;;57.60;32.75;;;;;;;12.66;51.19;103062.06;5023644;28;20044;-64
2022/03/23 09:17:50;;;;;;;55.97;33.55;;;;;;;12.76;51.18;103061.31;5027003;28;20477;-64
2022/03/23 09:20:16;;;;;;;56.28;32.58;;;;;;;13.01;50.94;103059.09;5009500;28;20036;-64
2022/03/23 09:22:41;;;;;;;59.92;32.50;;;;;;;13.10;50.73;103065.44;5018072;28;20029;-64
2022/03/23 09:25:09;;;;;;;56.92;32.65;;;;;;;13.25;50.20;103063.28;5027582;28;20048;-64
2022/03/23 09:27:37;;;;;;;52.97;32.80;;;;;;;13.25;50.15;103066.78;5018009;28;20092;-64
2022/03/23 09:30:04;;;;;;;54.70;32.90;;;;;;;13.40;50.22;103063.78;5022473;28;20029;-64
2022/03/23 09:32:29;;;;;;;54.50;31.48;;;;;;;13.40;49.84;103064.63;5008386;28;20115;-64
2022/03/23 09:34:54;;;;;;;49.75;32.08;;;;;;;13.74;49.28;103064.31;5007928;28;20077;-64
2022/03/23 09:40:04;;;;;;;49.53;29.42;;;;;;;14.22;48.35;103056.38;5014703;28;20041;-64
2022/03/23 09:42:31;;;;;;;51.45;31.20;;;;;;;14.50;47.79;103060.06;5027493;28;20590;-64
2022/03/23 09:44:57;;;;;;;45.83;27.80;;;;;;;14.50;46.15;103058.22;5013449;28;20064;-64
2022/03/23 09:47:22;;;;;;;41.47;27.55;;;;;;;14.69;45.51;103064.50;5020121;28;20101;-64
2022/03/23 09:49:48;;;;;;;48.15;26.80;;;;;;;14.86;44.30;103064.63;5025502;28;20456;-65
2022/03/23 09:52:14;;;;;;;46.15;28.52;;;;;;;14.88;43.87;103059.13;5011679;28;20029;-64
2022/03/23 09:54:41;;;;;;;47.58;27.08;;;;;;;14.97;43.04;103055.59;5029682;28;20020;-64
2022/03/23 09:57:07;;;;;;;42.88;27.50;;;;;;;14.97;42.57;103060.94;5029739;28;20022;-65
2022/03/23 09:59:33;;;;;;;46.63;28.45;;;;;;;15.25;42.25;103055.63;5024800;28;20120;-64
2022/03/23 10:02:01;;;;;;;44.47;29.52;;;;;;;15.51;42.63;103062.00;5015900;28;20029;-65
2022/03/23 10:05:17;;;;;;;51.92;30.25;;;;;;;15.84;42.72;103065.09;5018130;28;20052;-64
2022/03/23 10:07:52;;;;;;;47.65;30.10;;;;;;;16.03;42.60;103064.97;5017328;28;20565;-65
2022/03/23 10:10:56;;;;;;;48.10;28.75;;;;;;;16.15;41.61;103057.53;5029197;28;20053;-65
2022/03/23 10:13:54;;;;;;;48.17;29.73;;;;;;;16.33;41.81;103061.91;5015888;28;20566;-65
2022/03/23 10:17:00;;;;;;;52.10;29.25;;;;;;;16.48;41.71;103061.34;5016286;28;20057;-64
2022/03/23 10:19:25;;;;;;;44.80;29.30;;;;;;;16.56;40.75;103067.63;5018736;28;20382;-64
2022/03/23 10:21:51;;;;;;;51.03;30.52;;;;;;;16.80;40.99;103063.50;5011578;28;20536;-64
2022/03/23 10:24:16;;;;;;;46.50;29.80;;;;;;;16.93;40.63;103054.00;5022810;28;20488;-64
2022/03/23 10:26:42;;;;;;;51.58;29.92;;;;;;;17.00;40.73;103054.19;5021902;28;20091;-64
2022/03/23 10:29:26;;;;;;;51.88;31.48;;;;;;;17.10;40.62;103059.47;5019775;28;20028;-64
2022/03/23 10:32:10;;;;;;;48.90;30.63;;;;;;;17.26;40.13;103051.50;5017585;28;20033;-64
2022/03/23 10:34:41;;;;;;;45.30;30.33;;;;;;;17.50;40.15;103056.13;5017958;28;20026;-65
2022/03/23 10:37:07;;;;;;;46.35;30.05;;;;;;;17.52;39.48;103057.66;5024326;28;20105;-64
2022/03/23 10:39:32;;;;;;;46.33;31.13;;;;;;;17.53;39.77;103059.34;5018014;28;20286;-64
2022/03/23 10:42:12;;;;;;;48.20;30.45;;;;;;;17.54;39.20;103057.50;5015489;28;20059;-64
2022/03/23 10:44:38;;;;;;;47.28;31.40;;;;;;;17.65;39.20;103059.91;5021278;28;20030;-65
2022/03/23 10:47:04;;;;;;;48.13;30.58;;;;;;;17.77;39.49;103047.03;5021909;28;20378;-64
2022/03/23 10:49:32;;;;;;;51.33;30.60;;;;;;;17.86;39.42;103046.88;5020888;28;20160;-64
2022/03/23 10:52:13;;;;;;;49.13;29.83;;;;;;;18.06;38.56;103050.09;5020128;28;20034;-64
2022/03/23 10:54:38;;;;;;;48.50;31.05;;;;;;;18.06;39.06;103043.88;5011528;28;20018;-64
2022/03/23 10:57:04;;;;;;;55.88;30.17;;;;;;;18.07;38.00;103040.19;5019578;28;20554;-64
2022/03/23 10:59:29;;;;;;;46.58;30.92;;;;;;;18.04;37.61;103037.84;5016460;28;20026;-64
2022/03/23 11:01:57;;;;;;;48.63;30.35;;;;;;;18.14;38.17;103035.81;5014525;28;20056;-65
2022/03/23 11:04:29;;;;;;;49.05;31.33;;;;;;;18.17;37.87;103033.63;5011131;28;20040;-65
2022/03/23 11:06:56;;;;;;;44.90;31.10;;;;;;;18.19;37.53;103039.69;5020427;28;20025;-65
2022/03/23 11:18:05;;;;;;;42.00;28.38;;;;;;;18.19;36.28;103045.06;5010797;28;20041;-65
2022/03/23 11:20:49;;;;;;;36.75;25.60;;;;;;;18.19;35.24;103036.16;5010062;28;20474;-64
2022/03/23 11:23:31;;;;;;;31.98;22.13;;;;;;;18.19;33.55;103039.69;5010399;28;20112;-64
2022/03/23 11:26:00;;;;;;;36.08;23.90;;;;;;;18.24;33.27;103036.50;5020955;28;20026;-65
2022/03/23 11:28:28;;;;;;;37.67;24.13;;;;;;;18.30;32.76;103035.00;5024501;28;20034;-64
2022/03/23 11:30:54;;;;;;;32.40;22.40;;;;;;;18.45;31.86;103031.44;5019115;28;20030;-65
2022/03/23 11:33:23;;;;;;;33.22;22.02;;;;;;;18.35;31.24;103029.94;5009611;28;20079;-65
2022/03/23 11:35:50;;;;;;;37.20;22.17;;;;;;;18.41;30.71;103032.78;5009566;28;20025;-64
2022/03/23 11:38:21;;;;;;;33.15;24.05;;;;;;;18.56;30.43;103020.34;5021822;28;20033;-65